Terminal Aerodrome Forecast
Issued by NWS

Home | Current Version | Previous Version | Text Only | Print | Product List | Glossary On
Versions: 1 2 3 4 5 6 7 8 9 10 11 12 13 14 15 16 17 18 19 20 21 22 23 24 25 26 27 28
000
FTUS43 KICT 151527 AAB
TAFCNU
TAF AMD
KCNU 151527Z 1515/1612 15005KT 2SM BR OVC004
      TEMPO 1515/1516 1/4SM FG VV002
     FM151630 15004KT P6SM BKN015
     FM151700 15007KT P6SM SCT060
     FM160300 14005KT P6SM VCTS SCT080CB=

USA.gov is the U.S. government's official web portal to all federal, state and local government web resources and services.